Time;durP1;ratioP1;P1;durP2;ratioP2;P2;SDS_P1;SDS_P2;PMS_P1;PMS_P2;Temp;Humidity;BMP_temperature;BMP_pressure;BME280_temperature;BME280_humidity;BME280_pressure;Samples;Min_cycle;Max_cycle;Signal;HPM_P1;HPM_P2
2020/12/30 00:00:09;;;;;;;17.50;10.67;;;3.70;99.90;;;;;;5003525;28;20219;-42
2020/12/30 00:02:35;;;;;;;18.93;11.30;;;3.70;99.90;;;;;;5002442;28;20177;-43
2020/12/30 00:05:04;;;;;;;17.87;11.30;;;3.70;99.90;;;;;;5005869;28;20205;-42
2020/12/30 00:07:32;;;;;;;20.87;11.40;;;3.70;99.90;;;;;;4996462;28;20189;-45
2020/12/30 00:09:58;;;;;;;19.93;12.00;;;3.70;99.90;;;;;;5005607;28;20535;-45
2020/12/30 00:12:27;;;;;;;21.00;13.23;;;3.80;99.90;;;;;;5003085;28;20168;-44
2020/12/30 00:14:54;;;;;;;25.23;12.43;;;3.80;99.90;;;;;;5004846;28;20561;-45
2020/12/30 00:17:19;;;;;;;22.73;13.07;;;3.80;99.90;;;;;;5000381;28;20173;-43
2020/12/30 00:19:45;;;;;;;23.77;14.23;;;3.80;99.90;;;;;;5004375;28;20224;-44
2020/12/30 00:22:10;;;;;;;22.83;14.00;;;3.80;99.90;;;;;;4990952;28;20192;-43
2020/12/30 00:24:36;;;;;;;23.67;13.33;;;3.80;99.90;;;;;;5002577;28;20215;-43
2020/12/30 00:27:03;;;;;;;25.30;14.57;;;3.90;99.90;;;;;;5004359;28;20226;-44
2020/12/30 00:29:29;;;;;;;22.67;12.83;;;3.90;99.90;;;;;;5001724;28;20177;-42
2020/12/30 00:31:54;;;;;;;23.87;14.20;;;3.90;99.90;;;;;;5004537;28;20180;-44
2020/12/30 00:34:19;;;;;;;24.30;14.50;;;3.90;99.90;;;;;;5000010;28;20446;-42
2020/12/30 00:36:45;;;;;;;23.13;14.80;;;3.90;99.90;;;;;;5004378;28;20656;-41
2020/12/30 00:39:10;;;;;;;26.00;15.57;;;3.90;99.90;;;;;;4991327;28;20208;-45
2020/12/30 00:41:36;;;;;;;24.80;14.70;;;4.00;99.90;;;;;;5003488;28;20218;-44
2020/12/30 00:44:01;;;;;;;24.90;16.03;;;4.00;99.90;;;;;;5005630;28;20209;-45
2020/12/30 00:46:27;;;;;;;30.00;14.17;;;4.00;99.90;;;;;;5000387;28;20181;-44
2020/12/30 00:48:52;;;;;;;27.63;15.50;;;4.00;99.90;;;;;;5003749;28;20180;-45
2020/12/30 00:51:18;;;;;;;27.80;15.63;;;4.00;99.90;;;;;;5000009;28;20287;-45
2020/12/30 00:53:43;;;;;;;26.10;15.47;;;4.00;99.90;;;;;;4993443;28;20192;-43
2020/12/30 00:56:10;;;;;;;29.70;17.73;;;4.10;99.90;;;;;;5001791;28;20224;-44
2020/12/30 00:58:36;;;;;;;31.33;17.70;;;4.10;99.90;;;;;;5001650;28;20276;-42
2020/12/30 01:01:06;;;;;;;33.63;18.67;;;4.10;99.90;;;;;;5002997;28;20279;-44
2020/12/30 01:03:33;;;;;;;30.87;17.87;;;4.10;99.90;;;;;;5000928;28;20459;-43
2020/12/30 01:05:59;;;;;;;33.47;17.47;;;4.10;99.90;;;;;;5003078;28;20200;-47
2020/12/30 01:08:25;;;;;;;28.43;17.70;;;4.10;99.90;;;;;;4991813;28;20769;-44
2020/12/30 01:10:51;;;;;;;37.60;20.30;;;4.10;99.90;;;;;;5003638;28;20197;-43
2020/12/30 01:13:16;;;;;;;38.03;19.73;;;4.20;99.90;;;;;;5000215;28;20179;-44
2020/12/30 01:15:42;;;;;;;33.57;18.60;;;4.20;99.90;;;;;;5003207;28;20177;-43
2020/12/30 01:18:07;;;;;;;34.83;19.37;;;4.20;99.90;;;;;;5002138;28;20216;-43
2020/12/30 01:20:33;;;;;;;31.70;18.37;;;4.20;99.90;;;;;;5000480;28;20227;-45
2020/12/30 01:22:58;;;;;;;35.93;18.93;;;4.20;99.90;;;;;;5003456;28;20597;-41
2020/12/30 01:25:25;;;;;;;37.97;19.53;;;4.20;99.90;;;;;;4988371;28;20525;-42
2020/12/30 01:27:51;;;;;;;35.53;18.90;;;4.20;99.90;;;;;;5003001;28;20184;-43
2020/12/30 01:30:17;;;;;;;35.17;18.03;;;4.20;99.90;;;;;;4999493;28;20258;-47
2020/12/30 01:32:42;;;;;;;37.47;20.87;;;4.20;99.90;;;;;;5002533;28;20176;-42
2020/12/30 01:35:08;;;;;;;44.40;21.80;;;4.20;99.90;;;;;;5001572;28;20200;-44
2020/12/30 01:37:33;;;;;;;33.13;19.03;;;4.30;99.90;;;;;;5000877;28;20501;-45
2020/12/30 01:39:59;;;;;;;33.83;19.50;;;4.30;99.90;;;;;;4992015;28;20212;-44
2020/12/30 01:42:25;;;;;;;33.17;19.63;;;4.30;99.90;;;;;;4997833;28;20805;-46
2020/12/30 01:44:50;;;;;;;35.73;20.13;;;4.30;99.90;;;;;;5002621;28;20291;-42
2020/12/30 01:47:17;;;;;;;39.60;21.53;;;4.30;99.90;;;;;;4999556;28;20185;-45
2020/12/30 01:49:42;;;;;;;35.20;20.27;;;4.30;99.90;;;;;;5002318;28;20613;-43
2020/12/30 01:52:08;;;;;;;35.63;19.10;;;4.30;99.90;;;;;;5001420;28;20208;-43
2020/12/30 01:54:34;;;;;;;37.30;20.77;;;4.30;99.90;;;;;;5002900;28;20678;-45
2020/12/30 01:57:02;;;;;;;34.00;20.67;;;4.30;99.90;;;;;;4994944;28;20200;-47
2020/12/30 01:59:28;;;;;;;36.03;20.47;;;4.30;99.90;;;;;;5001379;28;20185;-45
2020/12/30 02:02:15;;;;;;;35.47;19.20;;;4.30;99.90;;;;;;5006151;28;20191;-44
2020/12/30 02:04:43;;;;;;;33.77;19.43;;;4.30;99.90;;;;;;5005449;28;20295;-45
2020/12/30 02:07:08;;;;;;;37.67;20.13;;;4.30;99.90;;;;;;5003110;28;20671;-44
2020/12/30 02:09:34;;;;;;;33.90;19.70;;;4.30;99.90;;;;;;4999980;28;20188;-46
2020/12/30 02:12:00;;;;;;;33.50;18.63;;;4.30;99.90;;;;;;4992477;28;20235;-43
2020/12/30 02:14:25;;;;;;;30.43;18.00;;;4.30;99.90;;;;;;4998429;28;20436;-44
2020/12/30 02:16:53;;;;;;;27.10;16.93;;;4.30;99.90;;;;;;5002954;28;20188;-46
2020/12/30 02:19:20;;;;;;;33.70;19.13;;;4.30;99.90;;;;;;5002392;28;20177;-43
2020/12/30 02:21:45;;;;;;;39.83;21.07;;;4.40;99.90;;;;;;5005907;28;20173;-44
2020/12/30 02:24:17;;;;;;;38.03;20.17;;;4.30;99.90;;;;;;5005368;28;20259;-43
2020/12/30 02:26:43;;;;;;;33.30;19.20;;;4.30;99.90;;;;;;4996627;28;20272;-45
2020/12/30 02:29:09;;;;;;;30.87;18.43;;;4.30;99.90;;;;;;5005017;28;20256;-44
2020/12/30 02:31:34;;;;;;;31.97;17.23;;;4.30;99.90;;;;;;5007215;28;20323;-46
2020/12/30 02:34:00;;;;;;;32.30;20.40;;;4.30;99.90;;;;;;5007490;28;20185;-42
2020/12/30 02:36:25;;;;;;;35.60;21.60;;;4.30;99.90;;;;;;5002007;28;20358;-42
2020/12/30 02:38:54;;;;;;;34.03;18.73;;;4.30;99.90;;;;;;5005920;28;20247;-41
2020/12/30 02:41:20;;;;;;;36.63;19.67;;;4.30;99.90;;;;;;5001928;28;20669;-46
2020/12/30 02:43:46;;;;;;;40.13;21.07;;;4.30;99.90;;;;;;4995663;28;20188;-45
2020/12/30 02:46:12;;;;;;;30.03;18.03;;;4.40;99.90;;;;;;5003396;28;20685;-44
2020/12/30 02:48:38;;;;;;;29.87;17.47;;;4.30;99.90;;;;;;5004440;28;20307;-43
2020/12/30 02:51:03;;;;;;;29.57;17.33;;;4.30;99.90;;;;;;5005202;28;20204;-43
2020/12/30 02:53:29;;;;;;;32.90;18.10;;;4.30;99.90;;;;;;5002212;28;20425;-46
2020/12/30 02:55:54;;;;;;;31.17;17.00;;;4.30;99.90;;;;;;5006337;28;20177;-45
2020/12/30 02:58:20;;;;;;;36.37;18.73;;;4.30;99.90;;;;;;4992203;28;21300;-43
2020/12/30 03:00:45;;;;;;;31.77;18.33;;;4.30;99.90;;;;;;5004659;28;20216;-44
2020/12/30 03:03:10;;;;;;;30.17;18.40;;;4.30;99.90;;;;;;5005041;28;20590;-42
2020/12/30 03:05:36;;;;;;;29.60;16.40;;;4.30;99.90;;;;;;5007214;28;20443;-46
2020/12/30 03:08:01;;;;;;;30.53;18.83;;;4.30;99.90;;;;;;5007224;28;20188;-44
2020/12/30 03:10:27;;;;;;;33.03;18.00;;;4.30;99.90;;;;;;5004362;28;20850;-44
2020/12/30 03:12:52;;;;;;;26.77;17.13;;;4.30;99.90;;;;;;5005698;28;20241;-42
2020/12/30 03:15:18;;;;;;;29.70;18.43;;;4.30;99.90;;;;;;4991094;28;20197;-44
2020/12/30 03:17:43;;;;;;;30.73;19.03;;;4.30;99.90;;;;;;5005120;28;20510;-41
2020/12/30 03:20:09;;;;;;;29.30;16.93;;;4.30;99.90;;;;;;5003531;28;20193;-44
2020/12/30 03:22:34;;;;;;;31.30;18.07;;;4.30;99.90;;;;;;5003024;28;20763;-46
2020/12/30 03:25:00;;;;;;;27.37;16.90;;;4.30;99.90;;;;;;5006543;28;20303;-45
2020/12/30 03:27:25;;;;;;;31.17;17.37;;;4.30;99.90;;;;;;5003867;28;20185;-45
2020/12/30 03:29:50;;;;;;;30.43;18.40;;;4.30;99.90;;;;;;4996670;28;20227;-44
2020/12/30 03:32:16;;;;;;;30.30;18.17;;;4.30;99.90;;;;;;5004651;28;20185;-42
2020/12/30 03:34:41;;;;;;;25.23;15.43;;;4.30;99.90;;;;;;5006518;28;20645;-43
2020/12/30 03:37:07;;;;;;;29.17;17.67;;;4.30;99.90;;;;;;5003487;28;20181;-44
2020/12/30 03:39:32;;;;;;;28.03;17.27;;;4.30;99.90;;;;;;5002449;28;20443;-43
2020/12/30 03:41:58;;;;;;;28.80;16.90;;;4.30;99.90;;;;;;5005044;28;20173;-42
2020/12/30 03:44:23;;;;;;;25.83;16.27;;;4.30;99.90;;;;;;5000567;28;20597;-42
2020/12/30 03:46:49;;;;;;;23.70;14.43;;;4.30;99.90;;;;;;4994867;28;20196;-44
2020/12/30 03:49:14;;;;;;;24.50;16.03;;;4.30;99.90;;;;;;5001488;28;20614;-43
2020/12/30 03:51:40;;;;;;;29.90;16.67;;;4.30;99.90;;;;;;5003605;28;20181;-43
2020/12/30 03:54:05;;;;;;;23.50;14.97;;;4.30;99.90;;;;;;5003724;28;20272;-42
2020/12/30 03:56:31;;;;;;;28.47;17.90;;;4.30;99.90;;;;;;5001839;28;20172;-47
2020/12/30 03:58:56;;;;;;;30.00;18.27;;;4.30;99.90;;;;;;5004604;28;20872;-42
2020/12/30 04:01:22;;;;;;;28.97;18.70;;;4.30;99.90;;;;;;4989686;28;20573;-45
2020/12/30 04:03:47;;;;;;;27.00;16.67;;;4.30;99.90;;;;;;5004606;28;20633;-45
2020/12/30 04:06:13;;;;;;;26.13;16.97;;;4.30;99.90;;;;;;5001696;28;20208;-43
2020/12/30 04:08:38;;;;;;;23.13;16.70;;;4.30;99.90;;;;;;5002956;28;20266;-43
2020/12/30 04:11:03;;;;;;;25.20;15.17;;;4.30;99.90;;;;;;5003689;28;20200;-42
2020/12/30 04:13:29;;;;;;;23.93;15.17;;;4.30;99.90;;;;;;5001123;28;20618;-44
2020/12/30 04:15:54;;;;;;;30.30;17.30;;;4.30;99.90;;;;;;5006509;28;20185;-43
2020/12/30 04:18:20;;;;;;;28.50;16.83;;;4.30;99.90;;;;;;4992288;28;20728;-42
2020/12/30 04:20:45;;;;;;;25.67;15.17;;;4.30;99.90;;;;;;4998199;28;20223;-46
2020/12/30 04:23:11;;;;;;;26.50;14.93;;;4.30;99.90;;;;;;5004939;28;20253;-44
2020/12/30 04:25:36;;;;;;;25.63;15.27;;;4.30;99.90;;;;;;5003487;28;20718;-42
2020/12/30 04:28:02;;;;;;;27.13;15.90;;;4.30;99.90;;;;;;5007093;28;20227;-42
2020/12/30 04:30:27;;;;;;;25.17;15.50;;;4.30;99.90;;;;;;5001851;28;20388;-45
2020/12/30 04:32:53;;;;;;;26.93;15.93;;;4.30;99.90;;;;;;5004249;28;20172;-44
2020/12/30 04:35:18;;;;;;;40.70;17.93;;;4.30;99.90;;;;;;4989629;28;20200;-45
2020/12/30 04:37:44;;;;;;;31.20;16.43;;;4.30;99.90;;;;;;5003008;28;20176;-44
2020/12/30 04:40:09;;;;;;;29.13;17.13;;;4.30;99.90;;;;;;5001404;28;20201;-44
2020/12/30 04:42:37;;;;;;;36.90;17.40;;;4.30;99.90;;;;;;5001169;28;20666;-43
2020/12/30 04:45:08;;;;;;;33.73;17.23;;;4.30;99.90;;;;;;5003419;28;20222;-43
2020/12/30 04:47:34;;;;;;;28.90;15.67;;;4.30;99.90;;;;;;5001613;28;20300;-42
2020/12/30 04:50:00;;;;;;;40.50;16.43;;;4.30;99.90;;;;;;4993033;28;20292;-43
2020/12/30 04:52:27;;;;;;;37.87;18.60;;;4.30;99.90;;;;;;4999753;28;20204;-42
2020/12/30 04:54:53;;;;;;;23.23;14.90;;;4.30;99.90;;;;;;5006213;28;20176;-44
2020/12/30 04:57:34;;;;;;;27.73;17.10;;;4.30;99.90;;;;;;5001778;28;20216;-44
2020/12/30 05:00:04;;;;;;;20.77;12.17;;;4.30;99.90;;;;;;5004266;28;20676;-41
2020/12/30 05:02:34;;;;;;;28.07;15.87;;;4.30;99.90;;;;;;5000266;28;20519;-42
2020/12/30 05:04:59;;;;;;;26.73;15.60;;;4.30;99.90;;;;;;4995842;28;20315;-43
2020/12/30 05:07:27;;;;;;;27.87;16.83;;;4.30;99.90;;;;;;5000873;28;20889;-45
2020/12/30 05:09:54;;;;;;;30.60;17.97;;;4.30;99.90;;;;;;5005585;28;20223;-43
2020/12/30 05:12:21;;;;;;;27.77;17.73;;;4.30;99.90;;;;;;5001195;28;20204;-43
2020/12/30 05:14:46;;;;;;;23.40;13.87;;;4.30;99.90;;;;;;5006096;28;20172;-44
2020/12/30 05:17:13;;;;;;;31.43;17.53;;;4.30;99.90;;;;;;5002671;28;20177;-43
2020/12/30 05:19:40;;;;;;;24.90;16.00;;;4.30;99.90;;;;;;4994146;28;20216;-43
2020/12/30 05:22:06;;;;;;;28.20;16.47;;;4.30;99.90;;;;;;5004337;28;20267;-42
2020/12/30 05:24:32;;;;;;;33.70;17.77;;;4.30;99.90;;;;;;5002878;28;20968;-45
2020/12/30 05:26:59;;;;;;;33.03;19.10;;;4.30;99.90;;;;;;5003859;28;20264;-44
2020/12/30 05:29:25;;;;;;;28.00;18.13;;;4.30;99.90;;;;;;4998471;28;20706;-42
2020/12/30 05:31:52;;;;;;;37.57;17.80;;;4.30;99.90;;;;;;5003006;28;20165;-42
2020/12/30 05:34:19;;;;;;;30.43;18.00;;;4.30;99.90;;;;;;4990905;28;20715;-45
2020/12/30 05:36:46;;;;;;;41.50;18.90;;;4.30;99.90;;;;;;5002256;28;20303;-42
2020/12/30 05:39:30;;;;;;;33.53;18.50;;;4.30;99.90;;;;;;5000161;28;20592;-42
2020/12/30 05:42:19;;;;;;;26.73;15.93;;;4.30;99.90;;;;;;4983468;28;20180;-44
2020/12/30 05:44:47;;;;;;;35.27;20.40;;;4.30;99.90;;;;;;4983792;28;20207;-44
2020/12/30 05:47:15;;;;;;;27.70;16.93;;;4.30;99.90;;;;;;4980943;28;20265;-44
2020/12/30 05:49:41;;;;;;;31.07;18.20;;;4.30;99.90;;;;;;4983940;28;20224;-43
2020/12/30 05:52:18;;;;;;;34.33;18.40;;;4.30;99.90;;;;;;4990374;28;20280;-42
2020/12/30 05:54:54;;;;;;;26.63;16.73;;;4.30;99.90;;;;;;5006568;28;20676;-42
2020/12/30 05:57:31;;;;;;;32.17;17.30;;;4.30;99.90;;;;;;5002662;28;20541;-44
2020/12/30 06:00:17;;;;;;;31.67;16.63;;;4.30;99.90;;;;;;5006723;28;20235;-42
2020/12/30 06:02:44;;;;;;;31.97;18.33;;;4.30;99.90;;;;;;5005819;28;20185;-42
2020/12/30 06:05:15;;;;;;;28.40;16.90;;;4.30;99.90;;;;;;5000083;28;20295;-46
2020/12/30 06:07:42;;;;;;;25.60;16.47;;;4.30;99.90;;;;;;5002964;28;20482;-43
2020/12/30 06:10:09;;;;;;;38.43;18.53;;;4.30;99.90;;;;;;5004926;28;20287;-44
2020/12/30 06:12:42;;;;;;;35.47;19.00;;;4.30;99.90;;;;;;5005992;28;20569;-43
2020/12/30 06:15:11;;;;;;;26.37;16.63;;;4.30;99.90;;;;;;5006893;28;20673;-42
2020/12/30 06:17:50;;;;;;;37.07;17.67;;;4.30;99.90;;;;;;5006422;28;20662;-45
2020/12/30 06:20:32;;;;;;;39.00;18.13;;;4.30;99.90;;;;;;4996935;28;20259;-42
2020/12/30 06:23:11;;;;;;;39.57;18.00;;;4.30;99.90;;;;;;4999862;28;20192;-41
2020/12/30 06:25:49;;;;;;;33.07;17.27;;;4.30;99.90;;;;;;5004566;28;20200;-42
2020/12/30 06:28:19;;;;;;;24.43;15.67;;;4.30;99.90;;;;;;5003269;28;20177;-44
2020/12/30 06:30:47;;;;;;;32.20;15.17;;;4.30;99.90;;;;;;5006251;28;20292;-42
2020/12/30 06:33:13;;;;;;;30.50;16.03;;;4.30;99.90;;;;;;5004630;28;20173;-42
2020/12/30 06:35:41;;;;;;;55.20;18.93;;;4.30;99.90;;;;;;5006877;28;20799;-46
2020/12/30 06:38:22;;;;;;;38.53;18.57;;;4.30;99.90;;;;;;4997346;28;20193;-42
2020/12/30 06:40:59;;;;;;;30.87;14.67;;;4.30;99.90;;;;;;4999619;28;20193;-44
2020/12/30 06:43:46;;;;;;;34.97;16.43;;;4.30;99.90;;;;;;5002747;28;20611;-43
2020/12/30 06:46:13;;;;;;;35.37;16.07;;;4.30;99.90;;;;;;5003618;28;20540;-44
2020/12/30 06:48:59;;;;;;;27.67;15.40;;;4.30;99.90;;;;;;4996927;28;20218;-43
2020/12/30 06:51:26;;;;;;;27.47;14.83;;;4.30;99.90;;;;;;5002293;28;20201;-46
2020/12/30 06:53:55;;;;;;;27.27;13.37;;;4.30;99.90;;;;;;5009249;28;20208;-43
2020/12/30 06:56:44;;;;;;;23.63;14.20;;;4.30;99.90;;;;;;5014474;28;20202;-47
2020/12/30 06:59:25;;;;;;;24.87;14.70;;;4.30;99.90;;;;;;5024171;28;20250;-46
2020/12/30 07:01:59;;;;;;;26.10;15.27;;;4.30;99.90;;;;;;5013642;28;20188;-43
2020/12/30 07:04:26;;;;;;;26.77;15.03;;;4.30;99.90;;;;;;5018651;28;20249;-45
2020/12/30 07:06:55;;;;;;;21.47;14.50;;;4.30;99.90;;;;;;5018909;28;20180;-42
2020/12/30 07:09:38;;;;;;;28.57;16.53;;;4.30;99.90;;;;;;5005349;28;20193;-44
2020/12/30 07:12:04;;;;;;;33.73;17.20;;;4.30;99.90;;;;;;5002015;28;20886;-46
2020/12/30 07:14:31;;;;;;;28.40;16.07;;;4.30;99.90;;;;;;5005150;28;20230;-43
2020/12/30 07:16:59;;;;;;;30.50;16.50;;;4.30;99.90;;;;;;5005216;28;20669;-42
2020/12/30 07:19:28;;;;;;;25.77;15.87;;;4.30;99.90;;;;;;5010901;28;20172;-50
2020/12/30 07:22:08;;;;;;;21.30;12.43;;;4.30;99.90;;;;;;4998713;28;20173;-43
2020/12/30 07:24:45;;;;;;;23.43;13.47;;;4.30;99.90;;;;;;5008574;28;20220;-44
2020/12/30 07:27:13;;;;;;;26.47;16.33;;;4.30;99.90;;;;;;5001966;28;20172;-45
2020/12/30 07:29:40;;;;;;;29.37;16.47;;;4.30;99.90;;;;;;5005227;28;20208;-44
2020/12/30 07:32:07;;;;;;;32.23;16.90;;;4.30;99.90;;;;;;5002173;28;20169;-46
2020/12/30 07:34:36;;;;;;;28.63;16.53;;;4.30;99.90;;;;;;5006060;28;20184;-44
2020/12/30 07:37:04;;;;;;;24.87;14.97;;;4.30;99.90;;;;;;5002039;28;20161;-49
2020/12/30 07:39:38;;;;;;;23.47;14.80;;;4.30;99.90;;;;;;4995349;28;20188;-47
2020/12/30 07:42:07;;;;;;;29.23;16.10;;;4.30;99.90;;;;;;4998030;28;20192;-44
2020/12/30 07:44:33;;;;;;;27.93;16.27;;;4.30;99.90;;;;;;5001709;28;20804;-44
2020/12/30 07:47:04;;;;;;;25.43;16.93;;;4.30;99.90;;;;;;5001733;28;20510;-44
2020/12/30 07:49:31;;;;;;;29.53;16.13;;;4.30;99.90;;;;;;5005359;28;20216;-43
2020/12/30 07:51:58;;;;;;;39.80;18.53;;;4.30;99.90;;;;;;5002302;28;20657;-46
2020/12/30 07:54:25;;;;;;;30.30;16.90;;;4.30;99.90;;;;;;4994636;28;20193;-41
2020/12/30 07:56:52;;;;;;;37.43;18.07;;;4.30;99.90;;;;;;4999834;28;20216;-48
2020/12/30 07:59:24;;;;;;;28.67;15.80;;;4.30;99.90;;;;;;5005508;28;20181;-48
2020/12/30 08:02:02;;;;;;;29.07;16.50;;;4.30;99.90;;;;;;5001965;28;20203;-41
2020/12/30 08:04:29;;;;;;;35.43;17.57;;;4.30;99.90;;;;;;5008994;28;20204;-45
2020/12/30 08:06:56;;;;;;;28.30;16.63;;;4.30;99.90;;;;;;5003063;28;20172;-46
2020/12/30 08:09:30;;;;;;;24.33;14.40;;;4.30;99.90;;;;;;4993459;28;20259;-45
2020/12/30 08:11:59;;;;;;;29.33;16.63;;;4.30;99.90;;;;;;4999117;28;20185;-42
2020/12/30 08:14:29;;;;;;;27.17;15.80;;;4.30;99.90;;;;;;5008281;28;20195;-43
2020/12/30 08:17:06;;;;;;;26.30;15.43;;;4.30;99.90;;;;;;4998380;28;20185;-46
2020/12/30 08:19:51;;;;;;;31.43;16.70;;;4.30;99.90;;;;;;5004854;28;20692;-47
2020/12/30 08:22:20;;;;;;;27.77;16.13;;;4.30;99.90;;;;;;5003280;28;20177;-43
2020/12/30 08:24:50;;;;;;;25.73;15.63;;;4.20;99.90;;;;;;4984920;28;20262;-44
2020/12/30 08:27:20;;;;;;;31.53;16.47;;;4.30;99.90;;;;;;4999734;28;20938;-45
2020/12/30 08:29:46;;;;;;;26.07;15.37;;;4.30;99.90;;;;;;5003668;28;20188;-43
2020/12/30 08:32:33;;;;;;;32.57;15.40;;;4.20;99.90;;;;;;4998023;28;20246;-43
2020/12/30 08:35:10;;;;;;;21.93;13.63;;;4.30;99.90;;;;;;5000840;28;20227;-46
2020/12/30 08:37:41;;;;;;;27.37;15.07;;;4.20;99.90;;;;;;5004800;28;20255;-41
2020/12/30 08:40:23;;;;;;;37.20;17.07;;;4.30;99.90;;;;;;4989644;28;24185;-44
2020/12/30 08:42:52;;;;;;;27.80;14.67;;;4.30;99.90;;;;;;4991109;28;20213;-43
2020/12/30 08:45:34;;;;;;;28.03;14.47;;;4.30;99.90;;;;;;5002710;28;20406;-44
2020/12/30 08:48:12;;;;;;;25.90;13.13;;;4.30;99.90;;;;;;4995545;28;20192;-49
2020/12/30 08:50:38;;;;;;;22.53;13.50;;;4.30;99.90;;;;;;5004164;28;20207;-45
2020/12/30 08:53:03;;;;;;;22.90;14.77;;;4.30;99.90;;;;;;4999544;28;20172;-45
2020/12/30 08:55:29;;;;;;;25.80;14.70;;;4.30;99.90;;;;;;4991735;28;20558;-45
2020/12/30 08:57:54;;;;;;;26.87;15.30;;;4.30;99.90;;;;;;4998534;28;20169;-49
2020/12/30 09:00:21;;;;;;;31.50;15.93;;;4.30;99.90;;;;;;4999300;28;20213;-45
2020/12/30 09:02:49;;;;;;;30.67;15.90;;;4.20;99.90;;;;;;5000516;28;20183;-46
2020/12/30 09:05:28;;;;;;;24.10;15.77;;;4.20;99.90;;;;;;5000021;28;20208;-46
2020/12/30 09:07:54;;;;;;;24.00;15.63;;;4.20;99.90;;;;;;4998709;28;20176;-47
2020/12/30 09:10:19;;;;;;;26.37;14.73;;;4.20;99.90;;;;;;5015762;28;20985;-47
2020/12/30 09:12:45;;;;;;;25.90;14.43;;;4.20;99.90;;;;;;4995708;28;20692;-48
2020/12/30 09:15:14;;;;;;;29.10;17.67;;;4.20;99.90;;;;;;4996816;28;20271;-46
2020/12/30 09:17:40;;;;;;;26.73;14.33;;;4.10;99.90;;;;;;4994845;28;20315;-47
2020/12/30 09:20:14;;;;;;;32.20;19.00;;;4.10;99.90;;;;;;5008263;28;20295;-45
2020/12/30 09:22:41;;;;;;;30.67;14.67;;;4.10;99.90;;;;;;5015093;28;20179;-47
2020/12/30 09:25:07;;;;;;;28.17;14.73;;;4.00;99.90;;;;;;5007479;28;20201;-48
2020/12/30 09:27:35;;;;;;;31.33;16.90;;;4.00;99.90;;;;;;5006721;28;20195;-48
2020/12/30 09:30:12;;;;;;;29.37;16.30;;;4.00;99.90;;;;;;5002035;28;20195;-49
2020/12/30 09:32:40;;;;;;;29.17;15.63;;;4.00;99.90;;;;;;5005832;28;20181;-50
2020/12/30 09:35:08;;;;;;;33.87;17.77;;;4.00;99.90;;;;;;5004192;28;20173;-46
2020/12/30 09:37:34;;;;;;;55.23;20.37;;;4.00;99.90;;;;;;5022188;28;20259;-45
2020/12/30 09:40:05;;;;;;;37.07;17.43;;;3.90;99.90;;;;;;5011423;28;20279;-50
2020/12/30 09:42:30;;;;;;;34.60;17.10;;;3.90;99.90;;;;;;4989251;28;20717;-46
2020/12/30 09:44:56;;;;;;;33.23;16.77;;;3.90;99.90;;;;;;5004979;28;20338;-46
2020/12/30 09:47:21;;;;;;;37.33;18.83;;;3.90;99.90;;;;;;4996419;28;20242;-44
2020/12/30 09:49:47;;;;;;;33.73;17.40;;;3.90;99.90;;;;;;4998063;28;20216;-46
2020/12/30 09:52:12;;;;;;;25.27;16.70;;;3.90;99.90;;;;;;5010288;28;20270;-45
2020/12/30 09:54:38;;;;;;;41.37;19.10;;;3.90;99.90;;;;;;5011486;28;20203;-43
2020/12/30 09:57:03;;;;;;;27.43;15.57;;;4.00;99.90;;;;;;5013601;28;20908;-44
2020/12/30 09:59:29;;;;;;;28.00;16.20;;;4.00;99.90;;;;;;4995438;28;20200;-43
2020/12/30 10:01:54;;;;;;;34.40;17.40;;;4.00;99.90;;;;;;4995148;28;20436;-44
2020/12/30 10:04:20;;;;;;;34.60;17.83;;;4.00;99.90;;;;;;5003227;28;20192;-42
2020/12/30 10:06:46;;;;;;;28.80;17.57;;;3.90;99.90;;;;;;5000060;28;20192;-44
2020/12/30 10:09:15;;;;;;;34.47;17.87;;;4.00;99.90;;;;;;4987919;28;20517;-50
2020/12/30 10:11:41;;;;;;;32.17;17.73;;;4.00;99.90;;;;;;5004923;28;20177;-46
2020/12/30 10:14:06;;;;;;;32.97;16.67;;;4.00;99.90;;;;;;4991433;28;20255;-43
2020/12/30 10:16:32;;;;;;;32.23;17.40;;;4.00;99.90;;;;;;5003333;28;20193;-43
2020/12/30 10:18:59;;;;;;;66.80;21.13;;;4.00;99.90;;;;;;5001834;28;20200;-43
2020/12/30 10:21:31;;;;;;;28.83;15.97;;;4.00;99.90;;;;;;5001078;28;20791;-44
2020/12/30 10:23:58;;;;;;;34.23;17.30;;;4.00;99.90;;;;;;4992976;28;20315;-42
2020/12/30 10:26:23;;;;;;;26.23;14.47;;;4.00;99.90;;;;;;4996098;28;20220;-45
2020/12/30 10:28:49;;;;;;;33.83;16.83;;;4.00;99.90;;;;;;4988902;28;20207;-46
2020/12/30 10:31:15;;;;;;;37.90;18.20;;;4.00;99.90;;;;;;4999140;28;20219;-42
2020/12/30 10:33:40;;;;;;;31.33;17.37;;;4.00;99.90;;;;;;4994104;28;20384;-43
2020/12/30 10:36:06;;;;;;;31.40;17.27;;;4.00;99.90;;;;;;5002701;28;20185;-42
2020/12/30 10:38:32;;;;;;;33.87;17.67;;;4.00;99.90;;;;;;5000361;28;20465;-44
2020/12/30 10:40:57;;;;;;;30.77;16.97;;;4.00;99.90;;;;;;5005163;28;20239;-42
2020/12/30 10:43:23;;;;;;;31.60;16.27;;;4.00;99.90;;;;;;5006227;28;20211;-46
2020/12/30 10:45:48;;;;;;;36.87;18.77;;;4.00;99.90;;;;;;4992202;28;20414;-45
2020/12/30 10:48:14;;;;;;;36.20;18.30;;;4.00;99.90;;;;;;5012315;28;20176;-45
2020/12/30 10:50:39;;;;;;;26.00;16.40;;;4.00;99.90;;;;;;5007774;28;20216;-42
2020/12/30 10:53:05;;;;;;;33.60;17.03;;;4.00;99.90;;;;;;5009264;28;20258;-43
2020/12/30 10:55:30;;;;;;;35.17;17.70;;;4.00;99.90;;;;;;5001202;28;20185;-47
2020/12/30 10:57:56;;;;;;;31.63;17.40;;;4.00;99.90;;;;;;5003856;28;20196;-45
2020/12/30 11:00:21;;;;;;;30.07;16.53;;;4.00;99.90;;;;;;4993271;28;20293;-43
2020/12/30 11:02:47;;;;;;;34.77;18.23;;;4.00;99.90;;;;;;5001744;28;20206;-44
2020/12/30 11:05:12;;;;;;;43.17;18.63;;;4.00;99.90;;;;;;5012122;28;20226;-45
2020/12/30 11:07:38;;;;;;;42.13;17.73;;;4.00;99.90;;;;;;5002450;28;20177;-44
2020/12/30 11:10:04;;;;;;;33.40;16.80;;;4.10;99.90;;;;;;5006007;28;20556;-43
2020/12/30 11:12:30;;;;;;;31.70;15.77;;;4.10;99.90;;;;;;4999796;28;20185;-47
2020/12/30 11:14:55;;;;;;;34.07;17.20;;;4.10;99.90;;;;;;4994526;28;20193;-42
2020/12/30 11:17:20;;;;;;;33.53;17.23;;;4.10;99.90;;;;;;5001967;28;20212;-45
2020/12/30 11:19:46;;;;;;;27.33;13.00;;;4.10;99.90;;;;;;5001296;28;20212;-44
2020/12/30 11:22:11;;;;;;;34.27;16.20;;;4.10;99.90;;;;;;5006161;28;20184;-46
2020/12/30 11:24:37;;;;;;;29.77;15.77;;;4.10;99.90;;;;;;5002735;28;20291;-45
2020/12/30 11:27:03;;;;;;;28.10;16.57;;;4.10;99.90;;;;;;5008719;28;20172;-48
2020/12/30 11:29:31;;;;;;;30.53;15.87;;;4.20;99.90;;;;;;4994266;28;20204;-45
2020/12/30 11:31:57;;;;;;;33.07;16.00;;;4.20;99.90;;;;;;4999014;28;20200;-45
2020/12/30 11:34:22;;;;;;;29.83;15.80;;;4.20;99.90;;;;;;5006804;28;20204;-45
2020/12/30 11:36:48;;;;;;;30.40;15.37;;;4.20;99.90;;;;;;5002348;28;20189;-46
2020/12/30 11:39:13;;;;;;;37.40;17.03;;;4.20;99.90;;;;;;5007812;28;20196;-45
2020/12/30 11:41:39;;;;;;;30.10;16.37;;;4.20;99.90;;;;;;5005156;28;20165;-45
2020/12/30 11:44:04;;;;;;;30.40;16.77;;;4.20;99.90;;;;;;5005038;28;20199;-44
2020/12/30 11:46:30;;;;;;;32.33;15.90;;;4.20;99.90;;;;;;4991175;28;20228;-43
2020/12/30 11:48:56;;;;;;;33.17;16.93;;;4.20;99.90;;;;;;5008411;28;20196;-46
2020/12/30 11:51:21;;;;;;;27.57;16.57;;;4.30;99.90;;;;;;5004058;28;20295;-44
2020/12/30 11:53:47;;;;;;;33.90;15.63;;;4.30;99.90;;;;;;5001470;28;20845;-42
2020/12/30 11:56:20;;;;;;;36.70;17.13;;;4.30;99.90;;;;;;5014755;28;20184;-42
2020/12/30 11:58:45;;;;;;;38.17;15.13;;;4.30;99.90;;;;;;5002172;28;20205;-45
2020/12/30 12:01:11;;;;;;;32.57;16.37;;;4.30;99.90;;;;;;5006514;28;20224;-45
2020/12/30 12:03:36;;;;;;;36.33;16.00;;;4.30;99.90;;;;;;4994197;28;20189;-43
2020/12/30 12:06:02;;;;;;;23.77;14.23;;;4.30;99.90;;;;;;5003046;28;20723;-43
2020/12/30 12:08:27;;;;;;;28.30;13.03;;;4.30;99.90;;;;;;5002523;28;20235;-45
2020/12/30 12:10:53;;;;;;;26.57;15.50;;;4.30;99.90;;;;;;5002888;28;20193;-46
2020/12/30 12:13:18;;;;;;;37.00;17.93;;;4.30;99.90;;;;;;5003653;28;20609;-44
2020/12/30 12:15:44;;;;;;;23.63;15.10;;;4.40;99.90;;;;;;4996745;28;20223;-43
2020/12/30 12:18:09;;;;;;;27.97;17.13;;;4.40;99.90;;;;;;4994970;28;20232;-42
2020/12/30 12:20:34;;;;;;;30.63;16.20;;;4.40;99.90;;;;;;5000436;28;20291;-45
2020/12/30 12:23:03;;;;;;;23.20;14.10;;;4.40;99.90;;;;;;5002810;28;20270;-42
2020/12/30 12:25:29;;;;;;;29.37;15.17;;;4.40;99.90;;;;;;5011891;28;20216;-46
2020/12/30 12:27:54;;;;;;;25.07;15.37;;;4.30;99.90;;;;;;5023240;28;20172;-45
2020/12/30 12:30:20;;;;;;;32.17;17.63;;;4.40;99.90;;;;;;5023134;28;20616;-48
2020/12/30 12:32:45;;;;;;;36.10;17.17;;;4.40;99.90;;;;;;4984583;28;20188;-46
2020/12/30 12:35:11;;;;;;;29.30;16.27;;;4.40;99.90;;;;;;5006479;28;20187;-44
2020/12/30 12:37:36;;;;;;;31.13;15.90;;;4.40;99.90;;;;;;5002216;28;20223;-44